Terminal Aerodrome Forecast
Issued by NWS

Home | Current Version | Previous Version | Text Only | Print | Product List | Glossary On
Versions: 1 2 3 4 5 6 7 8 9 10 11 12 13 14 15 16 17 18 19
000
FTAK31 PANC 010547
TAFADL
TAF
PADL 010547Z 0106/0206 31012G20KT 3SM -SN BLSN SCT008 OVC015
      TEMPO 0106/0110 1SM -SN BLSN OVC008
     FM011200 11008G18KT 5SM -SN SCT008 OVC018
      TEMPO 0112/0116 -FZRASN BKN008
     FM011600 07012G20KT 5SM -SHRASN BKN020 OVC030
     FM012100 02009KT P6SM VCSH SCT025 BKN050
      AMD LTD TO CLD VIS AND WIND 0107/0116=

USA.gov is the U.S. government's official web portal to all federal, state and local government web resources and services.